sensor_id;sensor_type;location;lat;lon;timestamp;P1;durP1;ratioP1;P2;durP2;ratioP2
35188;SDS011;21762;54.480;18.556;2022-09-03T00:00:00;0.40;;;0.20;;
35188;SDS011;21762;54.480;18.556;2022-09-03T00:02:35;0.20;;;0.20;;
35188;SDS011;21762;54.480;18.556;2022-09-03T00:05:09;1.33;;;0.20;;
35188;SDS011;21762;54.480;18.556;2022-09-03T00:07:43;1.50;;;0.30;;
35188;SDS011;21762;54.480;18.556;2022-09-03T00:10:15;0.90;;;0.13;;
35188;SDS011;21762;54.480;18.556;2022-09-03T00:12:51;1.73;;;0.32;;
35188;SDS011;21762;54.480;18.556;2022-09-03T00:15:23;0.70;;;0.25;;
35188;SDS011;21762;54.480;18.556;2022-09-03T00:17:54;1.60;;;0.25;;
35188;SDS011;21762;54.480;18.556;2022-09-03T00:20:27;2.03;;;0.30;;
35188;SDS011;21762;54.480;18.556;2022-09-03T00:22:59;0.17;;;0.17;;
35188;SDS011;21762;54.480;18.556;2022-09-03T00:25:32;2.35;;;0.20;;
35188;SDS011;21762;54.480;18.556;2022-09-03T00:28:03;0.73;;;0.32;;
35188;SDS011;21762;54.480;18.556;2022-09-03T00:30:37;1.20;;;0.38;;
35188;SDS011;21762;54.480;18.556;2022-09-03T00:33:08;1.83;;;0.40;;
35188;SDS011;21762;54.480;18.556;2022-09-03T00:35:43;1.25;;;0.50;;
35188;SDS011;21762;54.480;18.556;2022-09-03T00:38:14;4.10;;;1.20;;
35188;SDS011;21762;54.480;18.556;2022-09-03T00:40:50;3.65;;;0.63;;
35188;SDS011;21762;54.480;18.556;2022-09-03T00:43:29;0.73;;;0.40;;
35188;SDS011;21762;54.480;18.556;2022-09-03T00:46:06;1.48;;;0.20;;
35188;SDS011;21762;54.480;18.556;2022-09-03T00:48:41;3.70;;;0.40;;
35188;SDS011;21762;54.480;18.556;2022-09-03T00:51:23;0.28;;;0.28;;
35188;SDS011;21762;54.480;18.556;2022-09-03T00:53:56;2.35;;;0.60;;
35188;SDS011;21762;54.480;18.556;2022-09-03T00:56:29;0.60;;;0.20;;
35188;SDS011;21762;54.480;18.556;2022-09-03T00:59:11;2.22;;;0.43;;
35188;SDS011;21762;54.480;18.556;2022-09-03T01:01:47;2.70;;;0.50;;
35188;SDS011;21762;54.480;18.556;2022-09-03T01:04:24;1.90;;;0.50;;
35188;SDS011;21762;54.480;18.556;2022-09-03T01:07:00;2.13;;;0.47;;
35188;SDS011;21762;54.480;18.556;2022-09-03T01:09:36;3.47;;;0.60;;
35188;SDS011;21762;54.480;18.556;2022-09-03T01:12:17;1.40;;;0.63;;
35188;SDS011;21762;54.480;18.556;2022-09-03T01:14:53;1.65;;;0.40;;
35188;SDS011;21762;54.480;18.556;2022-09-03T01:17:32;2.05;;;0.70;;
35188;SDS011;21762;54.480;18.556;2022-09-03T01:20:13;1.17;;;0.47;;
35188;SDS011;21762;54.480;18.556;2022-09-03T01:25:58;0.77;;;0.40;;
35188;SDS011;21762;54.480;18.556;2022-09-03T01:28:46;1.15;;;0.45;;
35188;SDS011;21762;54.480;18.556;2022-09-03T01:31:23;0.45;;;0.35;;
35188;SDS011;21762;54.480;18.556;2022-09-03T01:34:00;1.42;;;0.52;;
35188;SDS011;21762;54.480;18.556;2022-09-03T01:36:36;2.00;;;0.32;;
35188;SDS011;21762;54.480;18.556;2022-09-03T01:39:10;1.70;;;0.38;;
35188;SDS011;21762;54.480;18.556;2022-09-03T01:41:44;0.75;;;0.30;;
35188;SDS011;21762;54.480;18.556;2022-09-03T01:44:37;1.95;;;0.52;;
35188;SDS011;21762;54.480;18.556;2022-09-03T01:47:36;0.52;;;0.40;;
35188;SDS011;21762;54.480;18.556;2022-09-03T01:50:14;2.28;;;0.50;;
35188;SDS011;21762;54.480;18.556;2022-09-03T01:52:50;0.55;;;0.30;;
35188;SDS011;21762;54.480;18.556;2022-09-03T01:55:25;2.65;;;0.60;;
35188;SDS011;21762;54.480;18.556;2022-09-03T01:57:57;2.58;;;0.65;;
35188;SDS011;21762;54.480;18.556;2022-09-03T02:00:29;1.52;;;0.60;;
35188;SDS011;21762;54.480;18.556;2022-09-03T02:02:59;0.47;;;0.47;;
35188;SDS011;21762;54.480;18.556;2022-09-03T02:05:31;8.48;;;0.90;;
35188;SDS011;21762;54.480;18.556;2022-09-03T02:08:01;2.75;;;0.65;;
35188;SDS011;21762;54.480;18.556;2022-09-03T02:10:31;1.88;;;0.80;;
35188;SDS011;21762;54.480;18.556;2022-09-03T02:13:03;0.88;;;0.47;;
35188;SDS011;21762;54.480;18.556;2022-09-03T02:15:35;2.42;;;0.43;;
35188;SDS011;21762;54.480;18.556;2022-09-03T02:18:09;1.52;;;0.65;;
35188;SDS011;21762;54.480;18.556;2022-09-03T02:20:40;0.77;;;0.60;;
35188;SDS011;21762;54.480;18.556;2022-09-03T02:23:09;3.25;;;0.50;;
35188;SDS011;21762;54.480;18.556;2022-09-03T02:25:38;3.03;;;0.70;;
35188;SDS011;21762;54.480;18.556;2022-09-03T02:28:11;2.47;;;0.60;;
35188;SDS011;21762;54.480;18.556;2022-09-03T02:30:41;2.45;;;0.70;;
35188;SDS011;21762;54.480;18.556;2022-09-03T02:33:11;1.33;;;0.63;;
35188;SDS011;21762;54.480;18.556;2022-09-03T02:35:41;1.17;;;0.80;;
35188;SDS011;21762;54.480;18.556;2022-09-03T02:38:10;3.58;;;0.80;;
35188;SDS011;21762;54.480;18.556;2022-09-03T02:40:38;1.75;;;0.55;;
35188;SDS011;21762;54.480;18.556;2022-09-03T02:43:07;2.22;;;0.55;;
35188;SDS011;21762;54.480;18.556;2022-09-03T02:45:39;0.63;;;0.50;;
35188;SDS011;21762;54.480;18.556;2022-09-03T02:48:12;1.25;;;0.50;;
35188;SDS011;21762;54.480;18.556;2022-09-03T02:50:45;3.90;;;0.40;;
35188;SDS011;21762;54.480;18.556;2022-09-03T02:53:14;1.60;;;0.50;;
35188;SDS011;21762;54.480;18.556;2022-09-03T02:55:45;1.90;;;0.70;;
35188;SDS011;21762;54.480;18.556;2022-09-03T02:58:13;2.88;;;0.55;;
35188;SDS011;21762;54.480;18.556;2022-09-03T03:00:42;4.93;;;0.60;;
35188;SDS011;21762;54.480;18.556;2022-09-03T03:03:11;1.52;;;0.60;;
35188;SDS011;21762;54.480;18.556;2022-09-03T03:05:41;2.70;;;0.60;;
35188;SDS011;21762;54.480;18.556;2022-09-03T03:08:10;1.20;;;0.57;;
35188;SDS011;21762;54.480;18.556;2022-09-03T03:10:40;1.13;;;0.40;;
35188;SDS011;21762;54.480;18.556;2022-09-03T03:13:10;2.35;;;0.40;;
35188;SDS011;21762;54.480;18.556;2022-09-03T03:15:43;0.45;;;0.30;;
35188;SDS011;21762;54.480;18.556;2022-09-03T03:18:12;0.60;;;0.50;;
35188;SDS011;21762;54.480;18.556;2022-09-03T03:20:40;1.08;;;0.50;;
35188;SDS011;21762;54.480;18.556;2022-09-03T03:23:09;4.43;;;0.50;;
35188;SDS011;21762;54.480;18.556;2022-09-03T03:25:38;0.35;;;0.35;;
35188;SDS011;21762;54.480;18.556;2022-09-03T03:28:07;1.65;;;0.25;;
35188;SDS011;21762;54.480;18.556;2022-09-03T03:30:36;0.65;;;0.50;;
35188;SDS011;21762;54.480;18.556;2022-09-03T03:33:07;1.63;;;0.50;;
35188;SDS011;21762;54.480;18.556;2022-09-03T03:35:36;1.17;;;0.50;;
35188;SDS011;21762;54.480;18.556;2022-09-03T03:38:09;2.08;;;0.50;;
35188;SDS011;21762;54.480;18.556;2022-09-03T03:40:37;1.83;;;0.52;;
35188;SDS011;21762;54.480;18.556;2022-09-03T03:43:05;1.33;;;0.60;;
35188;SDS011;21762;54.480;18.556;2022-09-03T03:45:33;0.95;;;0.40;;
35188;SDS011;21762;54.480;18.556;2022-09-03T03:48:02;2.60;;;0.60;;
35188;SDS011;21762;54.480;18.556;2022-09-03T03:50:31;1.83;;;0.40;;
35188;SDS011;21762;54.480;18.556;2022-09-03T03:53:00;2.60;;;0.45;;
35188;SDS011;21762;54.480;18.556;2022-09-03T03:55:28;0.52;;;0.30;;
35188;SDS011;21762;54.480;18.556;2022-09-03T03:57:57;0.85;;;0.30;;
35188;SDS011;21762;54.480;18.556;2022-09-03T04:00:25;2.10;;;0.40;;
35188;SDS011;21762;54.480;18.556;2022-09-03T04:02:53;1.00;;;0.45;;
35188;SDS011;21762;54.480;18.556;2022-09-03T04:05:21;1.27;;;0.45;;
35188;SDS011;21762;54.480;18.556;2022-09-03T04:07:51;0.98;;;0.52;;
35188;SDS011;21762;54.480;18.556;2022-09-03T04:10:19;1.63;;;0.60;;
35188;SDS011;21762;54.480;18.556;2022-09-03T04:12:52;1.67;;;0.60;;
35188;SDS011;21762;54.480;18.556;2022-09-03T04:15:20;0.95;;;0.50;;
35188;SDS011;21762;54.480;18.556;2022-09-03T04:17:48;3.97;;;0.82;;
35188;SDS011;21762;54.480;18.556;2022-09-03T04:20:17;1.30;;;0.50;;
35188;SDS011;21762;54.480;18.556;2022-09-03T04:22:45;0.50;;;0.50;;
35188;SDS011;21762;54.480;18.556;2022-09-03T04:25:17;3.50;;;0.60;;
35188;SDS011;21762;54.480;18.556;2022-09-03T04:27:45;4.43;;;0.90;;
35188;SDS011;21762;54.480;18.556;2022-09-03T04:30:13;2.08;;;0.60;;
35188;SDS011;21762;54.480;18.556;2022-09-03T04:32:41;3.35;;;0.80;;
35188;SDS011;21762;54.480;18.556;2022-09-03T04:35:22;2.78;;;1.15;;
35188;SDS011;21762;54.480;18.556;2022-09-03T04:37:53;2.05;;;0.47;;
35188;SDS011;21762;54.480;18.556;2022-09-03T04:40:23;0.75;;;0.47;;
35188;SDS011;21762;54.480;18.556;2022-09-03T04:42:55;3.95;;;1.00;;
35188;SDS011;21762;54.480;18.556;2022-09-03T04:45:23;2.08;;;0.80;;
35188;SDS011;21762;54.480;18.556;2022-09-03T04:47:55;1.30;;;0.82;;
35188;SDS011;21762;54.480;18.556;2022-09-03T04:50:24;2.60;;;0.77;;
35188;SDS011;21762;54.480;18.556;2022-09-03T04:52:58;1.65;;;0.82;;
35188;SDS011;21762;54.480;18.556;2022-09-03T04:55:33;1.67;;;0.75;;
35188;SDS011;21762;54.480;18.556;2022-09-03T04:58:01;3.47;;;1.00;;
35188;SDS011;21762;54.480;18.556;2022-09-03T05:00:29;5.15;;;2.55;;
35188;SDS011;21762;54.480;18.556;2022-09-03T05:02:59;3.03;;;1.02;;
35188;SDS011;21762;54.480;18.556;2022-09-03T05:05:27;1.70;;;0.75;;
35188;SDS011;21762;54.480;18.556;2022-09-03T05:07:56;1.67;;;0.80;;
35188;SDS011;21762;54.480;18.556;2022-09-03T05:10:25;2.30;;;0.82;;
35188;SDS011;21762;54.480;18.556;2022-09-03T05:12:58;3.50;;;1.10;;
35188;SDS011;21762;54.480;18.556;2022-09-03T05:15:27;2.13;;;0.75;;
35188;SDS011;21762;54.480;18.556;2022-09-03T05:17:55;3.45;;;1.25;;
35188;SDS011;21762;54.480;18.556;2022-09-03T05:20:24;5.30;;;1.20;;
35188;SDS011;21762;54.480;18.556;2022-09-03T05:22:54;2.67;;;0.80;;
35188;SDS011;21762;54.480;18.556;2022-09-03T05:25:22;2.30;;;1.20;;
35188;SDS011;21762;54.480;18.556;2022-09-03T05:27:50;2.75;;;1.33;;
35188;SDS011;21762;54.480;18.556;2022-09-03T05:30:21;4.85;;;1.50;;
35188;SDS011;21762;54.480;18.556;2022-09-03T05:32:49;3.85;;;0.82;;
35188;SDS011;21762;54.480;18.556;2022-09-03T05:35:18;3.20;;;1.20;;
35188;SDS011;21762;54.480;18.556;2022-09-03T05:37:48;7.95;;;1.65;;
35188;SDS011;21762;54.480;18.556;2022-09-03T05:40:16;4.75;;;1.50;;
35188;SDS011;21762;54.480;18.556;2022-09-03T05:42:44;4.45;;;1.98;;
35188;SDS011;21762;54.480;18.556;2022-09-03T05:45:12;4.80;;;1.38;;
35188;SDS011;21762;54.480;18.556;2022-09-03T05:47:42;3.08;;;1.35;;
35188;SDS011;21762;54.480;18.556;2022-09-03T05:50:10;4.63;;;0.90;;
35188;SDS011;21762;54.480;18.556;2022-09-03T05:52:41;4.70;;;1.05;;
35188;SDS011;21762;54.480;18.556;2022-09-03T05:55:09;3.08;;;0.90;;
35188;SDS011;21762;54.480;18.556;2022-09-03T05:57:38;1.83;;;1.20;;
35188;SDS011;21762;54.480;18.556;2022-09-03T06:00:07;2.05;;;0.93;;
35188;SDS011;21762;54.480;18.556;2022-09-03T06:02:37;6.47;;;1.00;;
35188;SDS011;21762;54.480;18.556;2022-09-03T06:05:07;4.88;;;1.20;;
35188;SDS011;21762;54.480;18.556;2022-09-03T06:07:35;4.15;;;1.20;;
35188;SDS011;21762;54.480;18.556;2022-09-03T06:10:04;2.70;;;1.10;;
35188;SDS011;21762;54.480;18.556;2022-09-03T06:12:33;2.67;;;0.95;;
35188;SDS011;21762;54.480;18.556;2022-09-03T06:15:03;1.42;;;0.98;;
35188;SDS011;21762;54.480;18.556;2022-09-03T06:17:32;4.82;;;0.82;;
35188;SDS011;21762;54.480;18.556;2022-09-03T06:20:03;4.38;;;0.95;;
35188;SDS011;21762;54.480;18.556;2022-09-03T06:22:33;1.90;;;1.00;;
35188;SDS011;21762;54.480;18.556;2022-09-03T06:25:03;4.23;;;0.63;;
35188;SDS011;21762;54.480;18.556;2022-09-03T06:27:32;1.00;;;0.57;;
35188;SDS011;21762;54.480;18.556;2022-09-03T06:30:00;5.35;;;0.93;;
35188;SDS011;21762;54.480;18.556;2022-09-03T06:32:32;2.35;;;0.90;;
35188;SDS011;21762;54.480;18.556;2022-09-03T06:35:00;1.90;;;1.30;;
35188;SDS011;21762;54.480;18.556;2022-09-03T06:37:29;3.65;;;1.05;;
35188;SDS011;21762;54.480;18.556;2022-09-03T06:40:01;2.30;;;0.98;;
35188;SDS011;21762;54.480;18.556;2022-09-03T06:42:32;2.35;;;1.30;;
35188;SDS011;21762;54.480;18.556;2022-09-03T06:45:02;4.53;;;1.35;;
35188;SDS011;21762;54.480;18.556;2022-09-03T06:47:32;3.15;;;0.77;;
35188;SDS011;21762;54.480;18.556;2022-09-03T06:50:00;2.60;;;1.02;;
35188;SDS011;21762;54.480;18.556;2022-09-03T06:52:28;2.33;;;0.70;;
35188;SDS011;21762;54.480;18.556;2022-09-03T06:54:56;3.58;;;0.93;;
35188;SDS011;21762;54.480;18.556;2022-09-03T06:57:26;0.63;;;0.45;;
35188;SDS011;21762;54.480;18.556;2022-09-03T06:59:57;0.57;;;0.40;;
35188;SDS011;21762;54.480;18.556;2022-09-03T07:02:25;2.50;;;0.50;;
35188;SDS011;21762;54.480;18.556;2022-09-03T07:04:53;0.93;;;0.60;;
35188;SDS011;21762;54.480;18.556;2022-09-03T07:07:22;1.45;;;0.50;;
35188;SDS011;21762;54.480;18.556;2022-09-03T07:09:50;0.25;;;0.22;;
35188;SDS011;21762;54.480;18.556;2022-09-03T07:12:18;1.13;;;0.40;;
35188;SDS011;21762;54.480;18.556;2022-09-03T07:14:48;4.57;;;0.90;;
35188;SDS011;21762;54.480;18.556;2022-09-03T07:17:16;1.45;;;0.50;;
35188;SDS011;21762;54.480;18.556;2022-09-03T07:19:44;0.98;;;0.28;;
35188;SDS011;21762;54.480;18.556;2022-09-03T07:22:12;0.93;;;0.30;;
35188;SDS011;21762;54.480;18.556;2022-09-03T07:24:40;3.45;;;0.43;;
35188;SDS011;21762;54.480;18.556;2022-09-03T07:27:12;0.85;;;0.30;;
35188;SDS011;21762;54.480;18.556;2022-09-03T07:29:40;0.90;;;0.35;;
35188;SDS011;21762;54.480;18.556;2022-09-03T07:32:12;3.05;;;0.50;;
35188;SDS011;21762;54.480;18.556;2022-09-03T07:34:41;0.70;;;0.40;;
35188;SDS011;21762;54.480;18.556;2022-09-03T07:37:09;0.75;;;0.22;;
35188;SDS011;21762;54.480;18.556;2022-09-03T07:39:37;0.60;;;0.30;;
35188;SDS011;21762;54.480;18.556;2022-09-03T07:42:06;1.05;;;0.22;;
35188;SDS011;21762;54.480;18.556;2022-09-03T07:44:39;1.88;;;0.30;;
35188;SDS011;21762;54.480;18.556;2022-09-03T07:47:09;0.40;;;0.30;;
35188;SDS011;21762;54.480;18.556;2022-09-03T07:49:40;0.57;;;0.30;;
35188;SDS011;21762;54.480;18.556;2022-09-03T07:52:08;1.17;;;0.38;;
35188;SDS011;21762;54.480;18.556;2022-09-03T07:54:39;0.67;;;0.20;;
35188;SDS011;21762;54.480;18.556;2022-09-03T07:57:08;0.52;;;0.20;;
35188;SDS011;21762;54.480;18.556;2022-09-03T07:59:36;2.85;;;0.30;;
35188;SDS011;21762;54.480;18.556;2022-09-03T08:02:07;0.22;;;0.20;;
35188;SDS011;21762;54.480;18.556;2022-09-03T08:04:35;0.45;;;0.40;;
35188;SDS011;21762;54.480;18.556;2022-09-03T08:07:05;0.30;;;0.30;;
35188;SDS011;21762;54.480;18.556;2022-09-03T08:09:33;0.40;;;0.40;;
35188;SDS011;21762;54.480;18.556;2022-09-03T08:12:01;0.20;;;0.20;;
35188;SDS011;21762;54.480;18.556;2022-09-03T08:14:31;0.10;;;0.10;;
35188;SDS011;21762;54.480;18.556;2022-09-03T08:16:59;0.68;;;0.40;;
35188;SDS011;21762;54.480;18.556;2022-09-03T08:19:27;0.93;;;0.32;;
35188;SDS011;21762;54.480;18.556;2022-09-03T08:21:56;0.73;;;0.20;;
35188;SDS011;21762;54.480;18.556;2022-09-03T08:24:26;0.25;;;0.20;;
35188;SDS011;21762;54.480;18.556;2022-09-03T08:26:54;0.47;;;0.40;;
35188;SDS011;21762;54.480;18.556;2022-09-03T08:29:22;2.00;;;0.20;;
35188;SDS011;21762;54.480;18.556;2022-09-03T08:31:50;0.30;;;0.30;;
35188;SDS011;21762;54.480;18.556;2022-09-03T08:34:19;1.17;;;0.40;;
35188;SDS011;21762;54.480;18.556;2022-09-03T08:36:50;1.23;;;0.20;;
35188;SDS011;21762;54.480;18.556;2022-09-03T08:39:19;1.00;;;0.20;;
35188;SDS011;21762;54.480;18.556;2022-09-03T08:47:11;0.52;;;0.22;;
35188;SDS011;21762;54.480;18.556;2022-09-03T08:49:42;1.90;;;0.30;;
35188;SDS011;21762;54.480;18.556;2022-09-03T08:52:17;0.50;;;0.20;;
35188;SDS011;21762;54.480;18.556;2022-09-03T08:54:49;1.17;;;0.20;;
35188;SDS011;21762;54.480;18.556;2022-09-03T08:57:21;2.50;;;0.32;;
35188;SDS011;21762;54.480;18.556;2022-09-03T08:59:52;2.28;;;0.20;;
35188;SDS011;21762;54.480;18.556;2022-09-03T09:02:24;0.17;;;0.13;;
35188;SDS011;21762;54.480;18.556;2022-09-03T09:04:58;1.02;;;0.32;;
35188;SDS011;21762;54.480;18.556;2022-09-03T09:07:35;1.27;;;0.22;;
35188;SDS011;21762;54.480;18.556;2022-09-03T09:10:09;0.20;;;0.20;;
35188;SDS011;21762;54.480;18.556;2022-09-03T09:12:46;1.42;;;0.25;;
35188;SDS011;21762;54.480;18.556;2022-09-03T09:15:17;0.40;;;0.22;;
35188;SDS011;21762;54.480;18.556;2022-09-03T09:17:57;0.93;;;0.22;;
35188;SDS011;21762;54.480;18.556;2022-09-03T09:20:34;0.73;;;0.20;;
35188;SDS011;21762;54.480;18.556;2022-09-03T09:23:06;1.17;;;0.30;;
35188;SDS011;21762;54.480;18.556;2022-09-03T09:25:40;1.05;;;0.28;;
35188;SDS011;21762;54.480;18.556;2022-09-03T09:28:15;1.48;;;0.40;;
35188;SDS011;21762;54.480;18.556;2022-09-03T09:30:45;0.30;;;0.20;;
35188;SDS011;21762;54.480;18.556;2022-09-03T09:33:14;0.47;;;0.28;;
35188;SDS011;21762;54.480;18.556;2022-09-03T09:35:43;0.75;;;0.30;;
35188;SDS011;21762;54.480;18.556;2022-09-03T09:38:13;1.85;;;0.63;;
35188;SDS011;21762;54.480;18.556;2022-09-03T09:40:42;0.98;;;0.38;;
35188;SDS011;21762;54.480;18.556;2022-09-03T09:43:12;1.15;;;0.20;;
35188;SDS011;21762;54.480;18.556;2022-09-03T09:45:46;0.90;;;0.47;;
35188;SDS011;21762;54.480;18.556;2022-09-03T09:48:17;0.30;;;0.30;;
35188;SDS011;21762;54.480;18.556;2022-09-03T09:50:48;1.10;;;0.30;;
35188;SDS011;21762;54.480;18.556;2022-09-03T09:53:18;0.35;;;0.20;;
35188;SDS011;21762;54.480;18.556;2022-09-03T09:55:49;0.52;;;0.30;;
35188;SDS011;21762;54.480;18.556;2022-09-03T09:58:23;1.83;;;0.50;;
35188;SDS011;21762;54.480;18.556;2022-09-03T10:00:57;3.28;;;0.20;;
35188;SDS011;21762;54.480;18.556;2022-09-03T10:03:30;2.28;;;0.25;;
35188;SDS011;21762;54.480;18.556;2022-09-03T10:06:04;0.28;;;0.28;;
35188;SDS011;21762;54.480;18.556;2022-09-03T10:08:51;0.13;;;0.13;;
35188;SDS011;21762;54.480;18.556;2022-09-03T10:11:20;0.43;;;0.20;;
35188;SDS011;21762;54.480;18.556;2022-09-03T10:13:52;1.85;;;0.20;;
35188;SDS011;21762;54.480;18.556;2022-09-03T10:16:22;2.13;;;0.30;;
35188;SDS011;21762;54.480;18.556;2022-09-03T10:18:59;0.25;;;0.25;;
35188;SDS011;21762;54.480;18.556;2022-09-03T10:21:31;1.30;;;0.63;;
35188;SDS011;21762;54.480;18.556;2022-09-03T10:24:08;0.50;;;0.10;;
35188;SDS011;21762;54.480;18.556;2022-09-03T10:26:42;0.30;;;0.20;;
35188;SDS011;21762;54.480;18.556;2022-09-03T10:29:14;0.20;;;0.10;;
35188;SDS011;21762;54.480;18.556;2022-09-03T10:31:46;0.70;;;0.30;;
35188;SDS011;21762;54.480;18.556;2022-09-03T10:34:21;1.55;;;0.30;;
35188;SDS011;21762;54.480;18.556;2022-09-03T10:36:53;0.65;;;0.30;;
35188;SDS011;21762;54.480;18.556;2022-09-03T10:39:28;1.00;;;0.22;;
35188;SDS011;21762;54.480;18.556;2022-09-03T10:42:19;0.10;;;0.10;;
35188;SDS011;21762;54.480;18.556;2022-09-03T10:45:01;0.98;;;0.40;;
35188;SDS011;21762;54.480;18.556;2022-09-03T10:50:41;1.25;;;0.28;;
35188;SDS011;21762;54.480;18.556;2022-09-03T10:53:18;0.43;;;0.20;;
35188;SDS011;21762;54.480;18.556;2022-09-03T10:55:54;0.25;;;0.20;;
35188;SDS011;21762;54.480;18.556;2022-09-03T10:58:31;0.52;;;0.22;;
35188;SDS011;21762;54.480;18.556;2022-09-03T11:01:11;0.75;;;0.20;;
35188;SDS011;21762;54.480;18.556;2022-09-03T11:03:47;1.35;;;0.20;;
35188;SDS011;21762;54.480;18.556;2022-09-03T11:06:21;0.80;;;0.30;;
35188;SDS011;21762;54.480;18.556;2022-09-03T11:08:53;0.38;;;0.30;;
35188;SDS011;21762;54.480;18.556;2022-09-03T11:11:26;0.20;;;0.10;;
35188;SDS011;21762;54.480;18.556;2022-09-03T11:13:58;0.57;;;0.20;;
35188;SDS011;21762;54.480;18.556;2022-09-03T11:16:34;1.00;;;0.30;;
35188;SDS011;21762;54.480;18.556;2022-09-03T11:19:08;0.80;;;0.40;;
35188;SDS011;21762;54.480;18.556;2022-09-03T11:21:38;0.63;;;0.13;;
35188;SDS011;21762;54.480;18.556;2022-09-03T11:24:10;0.17;;;0.13;;
35188;SDS011;21762;54.480;18.556;2022-09-03T11:26:41;0.65;;;0.15;;
35188;SDS011;21762;54.480;18.556;2022-09-03T11:29:11;1.90;;;0.30;;
35188;SDS011;21762;54.480;18.556;2022-09-03T11:31:48;0.22;;;0.17;;
35188;SDS011;21762;54.480;18.556;2022-09-03T11:34:28;0.30;;;0.20;;
35188;SDS011;21762;54.480;18.556;2022-09-03T11:37:06;2.15;;;0.50;;
35188;SDS011;21762;54.480;18.556;2022-09-03T11:39:51;0.20;;;0.20;;
35188;SDS011;21762;54.480;18.556;2022-09-03T11:42:26;0.50;;;0.30;;
35188;SDS011;21762;54.480;18.556;2022-09-03T11:44:59;0.63;;;0.25;;
35188;SDS011;21762;54.480;18.556;2022-09-03T11:47:42;5.95;;;0.30;;
35188;SDS011;21762;54.480;18.556;2022-09-03T11:50:16;1.55;;;0.32;;
35188;SDS011;21762;54.480;18.556;2022-09-03T11:52:47;2.58;;;0.20;;
35188;SDS011;21762;54.480;18.556;2022-09-03T11:55:24;2.55;;;0.20;;
35188;SDS011;21762;54.480;18.556;2022-09-03T11:57:58;1.50;;;0.15;;
35188;SDS011;21762;54.480;18.556;2022-09-03T12:00:37;1.83;;;0.30;;
35188;SDS011;21762;54.480;18.556;2022-09-03T12:03:11;2.40;;;0.30;;
35188;SDS011;21762;54.480;18.556;2022-09-03T12:05:46;1.20;;;0.10;;
35188;SDS011;21762;54.480;18.556;2022-09-03T12:08:26;0.52;;;0.20;;
35188;SDS011;21762;54.480;18.556;2022-09-03T12:11:16;1.95;;;0.20;;
35188;SDS011;21762;54.480;18.556;2022-09-03T12:13:53;0.20;;;0.20;;
35188;SDS011;21762;54.480;18.556;2022-09-03T12:16:30;0.55;;;0.20;;
35188;SDS011;21762;54.480;18.556;2022-09-03T12:19:10;0.93;;;0.17;;
35188;SDS011;21762;54.480;18.556;2022-09-03T12:21:47;0.63;;;0.35;;
35188;SDS011;21762;54.480;18.556;2022-09-03T12:24:16;0.30;;;0.13;;
35188;SDS011;21762;54.480;18.556;2022-09-03T12:26:45;0.17;;;0.17;;
35188;SDS011;21762;54.480;18.556;2022-09-03T12:29:19;0.35;;;0.20;;
35188;SDS011;21762;54.480;18.556;2022-09-03T12:31:54;0.28;;;0.20;;
35188;SDS011;21762;54.480;18.556;2022-09-03T12:34:24;0.73;;;0.30;;
35188;SDS011;21762;54.480;18.556;2022-09-03T12:36:53;0.45;;;0.20;;
35188;SDS011;21762;54.480;18.556;2022-09-03T12:39:22;0.10;;;0.10;;
35188;SDS011;21762;54.480;18.556;2022-09-03T12:42:11;0.25;;;0.25;;
35188;SDS011;21762;54.480;18.556;2022-09-03T12:47:12;0.22;;;0.20;;
35188;SDS011;21762;54.480;18.556;2022-09-03T12:50:04;0.68;;;0.20;;
35188;SDS011;21762;54.480;18.556;2022-09-03T12:52:34;0.30;;;0.20;;
35188;SDS011;21762;54.480;18.556;2022-09-03T12:55:05;0.57;;;0.30;;
35188;SDS011;21762;54.480;18.556;2022-09-03T12:57:36;1.13;;;0.15;;
35188;SDS011;21762;54.480;18.556;2022-09-03T13:00:08;0.22;;;0.22;;
35188;SDS011;21762;54.480;18.556;2022-09-03T13:02:43;0.13;;;0.05;;
35188;SDS011;21762;54.480;18.556;2022-09-03T13:05:16;0.20;;;0.20;;
35188;SDS011;21762;54.480;18.556;2022-09-03T13:07:46;1.15;;;0.20;;
35188;SDS011;21762;54.480;18.556;2022-09-03T13:10:22;0.25;;;0.10;;
35188;SDS011;21762;54.480;18.556;2022-09-03T13:12:56;0.68;;;0.30;;
35188;SDS011;21762;54.480;18.556;2022-09-03T13:15:25;0.10;;;0.10;;
35188;SDS011;21762;54.480;18.556;2022-09-03T13:18:06;0.30;;;0.20;;
35188;SDS011;21762;54.480;18.556;2022-09-03T13:20:41;0.98;;;0.20;;
35188;SDS011;21762;54.480;18.556;2022-09-03T13:23:23;0.20;;;0.20;;
35188;SDS011;21762;54.480;18.556;2022-09-03T13:26:15;0.55;;;0.30;;
35188;SDS011;21762;54.480;18.556;2022-09-03T13:28:52;1.13;;;0.30;;
35188;SDS011;21762;54.480;18.556;2022-09-03T13:31:28;0.05;;;0.05;;
35188;SDS011;21762;54.480;18.556;2022-09-03T13:34:00;2.30;;;0.30;;
35188;SDS011;21762;54.480;18.556;2022-09-03T13:36:35;1.00;;;0.20;;
35188;SDS011;21762;54.480;18.556;2022-09-03T13:39:11;0.63;;;0.35;;
35188;SDS011;21762;54.480;18.556;2022-09-03T13:41:47;1.08;;;0.40;;
35188;SDS011;21762;54.480;18.556;2022-09-03T13:44:21;0.55;;;0.20;;
35188;SDS011;21762;54.480;18.556;2022-09-03T13:46:56;0.13;;;0.10;;
35188;SDS011;21762;54.480;18.556;2022-09-03T13:52:17;0.47;;;0.15;;
35188;SDS011;21762;54.480;18.556;2022-09-03T13:54:51;0.17;;;0.10;;
35188;SDS011;21762;54.480;18.556;2022-09-03T13:57:27;0.10;;;0.10;;
35188;SDS011;21762;54.480;18.556;2022-09-03T14:00:01;1.35;;;0.30;;
35188;SDS011;21762;54.480;18.556;2022-09-03T14:02:35;15.23;;;1.95;;
35188;SDS011;21762;54.480;18.556;2022-09-03T14:05:31;0.43;;;0.15;;
35188;SDS011;21762;54.480;18.556;2022-09-03T14:08:10;0.30;;;0.30;;
35188;SDS011;21762;54.480;18.556;2022-09-03T14:10:44;0.30;;;0.20;;
35188;SDS011;21762;54.480;18.556;2022-09-03T14:13:23;0.30;;;0.17;;
35188;SDS011;21762;54.480;18.556;2022-09-03T14:15:59;1.45;;;0.30;;
35188;SDS011;21762;54.480;18.556;2022-09-03T14:18:34;1.88;;;0.65;;
35188;SDS011;21762;54.480;18.556;2022-09-03T14:21:09;1.83;;;0.20;;
35188;SDS011;21762;54.480;18.556;2022-09-03T14:23:43;0.30;;;0.30;;
35188;SDS011;21762;54.480;18.556;2022-09-03T14:26:21;1.25;;;0.32;;
35188;SDS011;21762;54.480;18.556;2022-09-03T14:29:03;0.30;;;0.30;;
35188;SDS011;21762;54.480;18.556;2022-09-03T14:31:40;1.65;;;0.40;;
35188;SDS011;21762;54.480;18.556;2022-09-03T14:34:21;0.40;;;0.30;;
35188;SDS011;21762;54.480;18.556;2022-09-03T14:37:00;1.13;;;0.30;;
35188;SDS011;21762;54.480;18.556;2022-09-03T14:39:33;0.65;;;0.50;;
35188;SDS011;21762;54.480;18.556;2022-09-03T14:45:07;0.52;;;0.32;;
35188;SDS011;21762;54.480;18.556;2022-09-03T14:50:51;3.08;;;0.40;;
35188;SDS011;21762;54.480;18.556;2022-09-03T14:53:34;1.35;;;0.40;;
35188;SDS011;21762;54.480;18.556;2022-09-03T14:56:34;0.52;;;0.40;;
35188;SDS011;21762;54.480;18.556;2022-09-03T14:59:12;0.30;;;0.30;;
35188;SDS011;21762;54.480;18.556;2022-09-03T15:02:05;0.73;;;0.28;;
35188;SDS011;21762;54.480;18.556;2022-09-03T15:04:49;0.60;;;0.30;;
35188;SDS011;21762;54.480;18.556;2022-09-03T15:07:29;0.28;;;0.20;;
35188;SDS011;21762;54.480;18.556;2022-09-03T15:10:05;0.10;;;0.10;;
35188;SDS011;21762;54.480;18.556;2022-09-03T15:12:47;0.57;;;0.22;;
35188;SDS011;21762;54.480;18.556;2022-09-03T15:15:17;0.70;;;0.20;;
35188;SDS011;21762;54.480;18.556;2022-09-03T15:17:53;0.30;;;0.30;;
35188;SDS011;21762;54.480;18.556;2022-09-03T15:20:25;1.38;;;0.30;;
35188;SDS011;21762;54.480;18.556;2022-09-03T15:23:03;0.63;;;0.38;;
35188;SDS011;21762;54.480;18.556;2022-09-03T15:25:41;0.40;;;0.30;;
35188;SDS011;21762;54.480;18.556;2022-09-03T15:28:24;1.65;;;0.30;;